sensor_id;sensor_type;location;lat;lon;timestamp;P1;durP1;ratioP1;P2;durP2;ratioP2
80247;SDS011;69560;52.206;21.018;2023-07-13T00:00:39;9.30;;;8.30;;
80247;SDS011;69560;52.206;21.018;2023-07-13T00:03:26;9.50;;;8.40;;
80247;SDS011;69560;52.206;21.018;2023-07-13T00:05:59;9.70;;;8.10;;
80247;SDS011;69560;52.206;21.018;2023-07-13T00:08:29;9.60;;;8.60;;
80247;SDS011;69560;52.206;21.018;2023-07-13T00:10:57;10.10;;;8.30;;
80247;SDS011;69560;52.206;21.018;2023-07-13T00:13:23;9.40;;;8.40;;
80247;SDS011;69560;52.206;21.018;2023-07-13T00:15:50;10.50;;;8.30;;
80247;SDS011;69560;52.206;21.018;2023-07-13T00:18:16;11.50;;;8.30;;
80247;SDS011;69560;52.206;21.018;2023-07-13T00:20:43;9.70;;;7.90;;
80247;SDS011;69560;52.206;21.018;2023-07-13T00:23:09;9.60;;;8.40;;
80247;SDS011;69560;52.206;21.018;2023-07-13T00:25:36;11.30;;;8.60;;
80247;SDS011;69560;52.206;21.018;2023-07-13T00:28:03;9.50;;;8.40;;
80247;SDS011;69560;52.206;21.018;2023-07-13T00:30:29;9.80;;;8.20;;
80247;SDS011;69560;52.206;21.018;2023-07-13T00:32:56;9.70;;;8.70;;
80247;SDS011;69560;52.206;21.018;2023-07-13T00:35:22;9.00;;;8.10;;
80247;SDS011;69560;52.206;21.018;2023-07-13T00:37:49;9.40;;;8.50;;
80247;SDS011;69560;52.206;21.018;2023-07-13T00:40:16;12.20;;;8.80;;
80247;SDS011;69560;52.206;21.018;2023-07-13T00:42:42;11.50;;;9.40;;
80247;SDS011;69560;52.206;21.018;2023-07-13T00:47:39;10.50;;;8.40;;
80247;SDS011;69560;52.206;21.018;2023-07-13T00:50:08;10.90;;;9.40;;
80247;SDS011;69560;52.206;21.018;2023-07-13T00:52:36;10.80;;;8.50;;
80247;SDS011;69560;52.206;21.018;2023-07-13T00:55:07;10.10;;;9.00;;
80247;SDS011;69560;52.206;21.018;2023-07-13T00:57:35;10.40;;;9.40;;
80247;SDS011;69560;52.206;21.018;2023-07-13T01:00:04;10.30;;;9.10;;
80247;SDS011;69560;52.206;21.018;2023-07-13T01:02:38;10.60;;;9.20;;
80247;SDS011;69560;52.206;21.018;2023-07-13T01:05:12;10.10;;;9.10;;
80247;SDS011;69560;52.206;21.018;2023-07-13T01:07:40;12.20;;;10.10;;
80247;SDS011;69560;52.206;21.018;2023-07-13T01:10:11;12.30;;;9.60;;
80247;SDS011;69560;52.206;21.018;2023-07-13T01:12:38;11.00;;;9.40;;
80247;SDS011;69560;52.206;21.018;2023-07-13T01:15:05;12.30;;;8.80;;
80247;SDS011;69560;52.206;21.018;2023-07-13T01:17:52;12.40;;;9.40;;
80247;SDS011;69560;52.206;21.018;2023-07-13T01:20:18;10.70;;;9.00;;
80247;SDS011;69560;52.206;21.018;2023-07-13T01:22:45;12.70;;;9.60;;
80247;SDS011;69560;52.206;21.018;2023-07-13T01:25:11;10.40;;;9.30;;
80247;SDS011;69560;52.206;21.018;2023-07-13T01:27:37;13.00;;;9.50;;
80247;SDS011;69560;52.206;21.018;2023-07-13T01:30:08;12.70;;;9.90;;
80247;SDS011;69560;52.206;21.018;2023-07-13T01:32:35;10.90;;;9.70;;
80247;SDS011;69560;52.206;21.018;2023-07-13T01:35:03;13.60;;;10.00;;
80247;SDS011;69560;52.206;21.018;2023-07-13T01:37:29;10.30;;;9.20;;
80247;SDS011;69560;52.206;21.018;2023-07-13T01:40:02;11.30;;;9.60;;
80247;SDS011;69560;52.206;21.018;2023-07-13T01:42:30;11.60;;;9.20;;
80247;SDS011;69560;52.206;21.018;2023-07-13T01:44:57;11.30;;;9.20;;
80247;SDS011;69560;52.206;21.018;2023-07-13T01:47:23;10.70;;;9.40;;
80247;SDS011;69560;52.206;21.018;2023-07-13T01:49:52;11.90;;;9.70;;
80247;SDS011;69560;52.206;21.018;2023-07-13T01:52:18;12.40;;;9.10;;
80247;SDS011;69560;52.206;21.018;2023-07-13T01:54:45;13.40;;;10.00;;
80247;SDS011;69560;52.206;21.018;2023-07-13T01:57:11;11.10;;;9.90;;
80247;SDS011;69560;52.206;21.018;2023-07-13T01:59:38;14.70;;;10.30;;
80247;SDS011;69560;52.206;21.018;2023-07-13T02:02:04;10.10;;;9.10;;
80247;SDS011;69560;52.206;21.018;2023-07-13T02:04:31;10.70;;;9.50;;
80247;SDS011;69560;52.206;21.018;2023-07-13T02:06:58;13.90;;;9.90;;
80247;SDS011;69560;52.206;21.018;2023-07-13T02:09:24;10.00;;;9.00;;
80247;SDS011;69560;52.206;21.018;2023-07-13T02:11:50;11.20;;;10.10;;
80247;SDS011;69560;52.206;21.018;2023-07-13T02:14:17;11.10;;;10.00;;
80247;SDS011;69560;52.206;21.018;2023-07-13T02:16:43;10.80;;;9.70;;
80247;SDS011;69560;52.206;21.018;2023-07-13T02:19:10;16.00;;;10.70;;
80247;SDS011;69560;52.206;21.018;2023-07-13T02:21:36;13.30;;;10.00;;
80247;SDS011;69560;52.206;21.018;2023-07-13T02:24:03;13.40;;;10.30;;
80247;SDS011;69560;52.206;21.018;2023-07-13T02:26:30;11.10;;;9.90;;
80247;SDS011;69560;52.206;21.018;2023-07-13T02:28:56;12.40;;;10.20;;
80247;SDS011;69560;52.206;21.018;2023-07-13T02:31:23;11.60;;;9.90;;
80247;SDS011;69560;52.206;21.018;2023-07-13T02:33:49;12.50;;;9.90;;
80247;SDS011;69560;52.206;21.018;2023-07-13T02:36:16;12.60;;;9.90;;
80247;SDS011;69560;52.206;21.018;2023-07-13T02:38:42;11.90;;;10.70;;
80247;SDS011;69560;52.206;21.018;2023-07-13T02:41:09;12.80;;;10.70;;
80247;SDS011;69560;52.206;21.018;2023-07-13T02:43:36;11.80;;;9.80;;
80247;SDS011;69560;52.206;21.018;2023-07-13T02:46:03;11.10;;;10.00;;
80247;SDS011;69560;52.206;21.018;2023-07-13T02:48:33;12.10;;;10.50;;
80247;SDS011;69560;52.206;21.018;2023-07-13T02:51:00;14.20;;;10.50;;
80247;SDS011;69560;52.206;21.018;2023-07-13T02:53:26;11.90;;;10.60;;
80247;SDS011;69560;52.206;21.018;2023-07-13T02:55:53;11.80;;;9.50;;
80247;SDS011;69560;52.206;21.018;2023-07-13T02:58:19;11.70;;;10.40;;
80247;SDS011;69560;52.206;21.018;2023-07-13T03:00:47;14.80;;;11.60;;
80247;SDS011;69560;52.206;21.018;2023-07-13T03:03:16;12.90;;;11.50;;
80247;SDS011;69560;52.206;21.018;2023-07-13T03:05:43;13.10;;;10.90;;
80247;SDS011;69560;52.206;21.018;2023-07-13T03:08:11;15.20;;;11.20;;
80247;SDS011;69560;52.206;21.018;2023-07-13T03:10:38;11.70;;;10.50;;
80247;SDS011;69560;52.206;21.018;2023-07-13T03:13:05;12.70;;;11.10;;
80247;SDS011;69560;52.206;21.018;2023-07-13T03:15:32;12.20;;;10.50;;
80247;SDS011;69560;52.206;21.018;2023-07-13T03:17:58;14.50;;;11.20;;
80247;SDS011;69560;52.206;21.018;2023-07-13T03:20:25;17.10;;;11.20;;
80247;SDS011;69560;52.206;21.018;2023-07-13T03:22:52;12.90;;;10.20;;
80247;SDS011;69560;52.206;21.018;2023-07-13T03:25:18;13.30;;;10.80;;
80247;SDS011;69560;52.206;21.018;2023-07-13T03:27:45;14.00;;;11.90;;
80247;SDS011;69560;52.206;21.018;2023-07-13T03:30:11;15.30;;;11.00;;
80247;SDS011;69560;52.206;21.018;2023-07-13T03:32:38;13.60;;;11.40;;
80247;SDS011;69560;52.206;21.018;2023-07-13T03:35:05;12.60;;;11.30;;
80247;SDS011;69560;52.206;21.018;2023-07-13T03:37:31;13.40;;;11.50;;
80247;SDS011;69560;52.206;21.018;2023-07-13T03:39:58;13.30;;;11.70;;
80247;SDS011;69560;52.206;21.018;2023-07-13T03:42:24;13.40;;;12.00;;
80247;SDS011;69560;52.206;21.018;2023-07-13T03:44:52;14.00;;;11.90;;
80247;SDS011;69560;52.206;21.018;2023-07-13T03:47:18;14.00;;;11.60;;
80247;SDS011;69560;52.206;21.018;2023-07-13T03:49:45;13.70;;;11.60;;
80247;SDS011;69560;52.206;21.018;2023-07-13T03:52:12;13.90;;;11.80;;
80247;SDS011;69560;52.206;21.018;2023-07-13T03:54:38;14.40;;;12.30;;
80247;SDS011;69560;52.206;21.018;2023-07-13T03:57:05;13.60;;;12.20;;
80247;SDS011;69560;52.206;21.018;2023-07-13T03:59:32;14.80;;;11.70;;
80247;SDS011;69560;52.206;21.018;2023-07-13T04:02:00;14.70;;;13.20;;
80247;SDS011;69560;52.206;21.018;2023-07-13T04:04:27;16.90;;;12.40;;
80247;SDS011;69560;52.206;21.018;2023-07-13T04:06:53;15.40;;;12.00;;
80247;SDS011;69560;52.206;21.018;2023-07-13T04:09:20;13.50;;;11.70;;
80247;SDS011;69560;52.206;21.018;2023-07-13T04:11:47;14.10;;;11.20;;
80247;SDS011;69560;52.206;21.018;2023-07-13T04:14:13;14.80;;;12.40;;
80247;SDS011;69560;52.206;21.018;2023-07-13T04:16:40;13.80;;;12.30;;
80247;SDS011;69560;52.206;21.018;2023-07-13T04:19:07;12.50;;;11.10;;
80247;SDS011;69560;52.206;21.018;2023-07-13T04:21:34;14.50;;;12.70;;
80247;SDS011;69560;52.206;21.018;2023-07-13T04:24:00;16.10;;;12.30;;
80247;SDS011;69560;52.206;21.018;2023-07-13T04:26:27;14.00;;;12.30;;
80247;SDS011;69560;52.206;21.018;2023-07-13T04:28:53;14.10;;;12.60;;
80247;SDS011;69560;52.206;21.018;2023-07-13T04:31:20;14.20;;;12.40;;
80247;SDS011;69560;52.206;21.018;2023-07-13T04:33:47;14.70;;;12.30;;
80247;SDS011;69560;52.206;21.018;2023-07-13T04:36:15;12.90;;;11.50;;
80247;SDS011;69560;52.206;21.018;2023-07-13T04:38:42;14.20;;;11.70;;
80247;SDS011;69560;52.206;21.018;2023-07-13T04:41:09;15.10;;;12.20;;
80247;SDS011;69560;52.206;21.018;2023-07-13T04:43:36;14.10;;;11.60;;
80247;SDS011;69560;52.206;21.018;2023-07-13T04:46:03;14.20;;;11.80;;
80247;SDS011;69560;52.206;21.018;2023-07-13T04:48:34;15.00;;;12.00;;
80247;SDS011;69560;52.206;21.018;2023-07-13T04:51:01;13.80;;;12.20;;
80247;SDS011;69560;52.206;21.018;2023-07-13T04:53:28;14.30;;;12.90;;
80247;SDS011;69560;52.206;21.018;2023-07-13T04:55:56;13.50;;;11.70;;
80247;SDS011;69560;52.206;21.018;2023-07-13T04:58:23;16.20;;;11.80;;
80247;SDS011;69560;52.206;21.018;2023-07-13T05:00:51;14.90;;;11.40;;
80247;SDS011;69560;52.206;21.018;2023-07-13T05:03:17;15.20;;;11.50;;
80247;SDS011;69560;52.206;21.018;2023-07-13T05:05:53;15.10;;;11.20;;
80247;SDS011;69560;52.206;21.018;2023-07-13T05:08:21;16.20;;;13.50;;
80247;SDS011;69560;52.206;21.018;2023-07-13T05:10:48;15.70;;;12.70;;
80247;SDS011;69560;52.206;21.018;2023-07-13T05:13:14;17.30;;;12.60;;
80247;SDS011;69560;52.206;21.018;2023-07-13T05:15:41;17.80;;;12.50;;
80247;SDS011;69560;52.206;21.018;2023-07-13T05:18:07;16.50;;;12.50;;
80247;SDS011;69560;52.206;21.018;2023-07-13T05:20:33;17.70;;;13.50;;
80247;SDS011;69560;52.206;21.018;2023-07-13T05:23:00;16.10;;;13.80;;
80247;SDS011;69560;52.206;21.018;2023-07-13T05:25:26;17.10;;;13.50;;
80247;SDS011;69560;52.206;21.018;2023-07-13T05:27:53;14.00;;;12.20;;
80247;SDS011;69560;52.206;21.018;2023-07-13T05:30:19;14.80;;;13.00;;
80247;SDS011;69560;52.206;21.018;2023-07-13T05:32:46;21.90;;;12.60;;
80247;SDS011;69560;52.206;21.018;2023-07-13T05:35:12;19.80;;;12.50;;
80247;SDS011;69560;52.206;21.018;2023-07-13T05:37:39;14.60;;;11.80;;
80247;SDS011;69560;52.206;21.018;2023-07-13T05:40:05;17.10;;;13.10;;
80247;SDS011;69560;52.206;21.018;2023-07-13T05:42:32;20.30;;;13.70;;
80247;SDS011;69560;52.206;21.018;2023-07-13T05:44:59;17.30;;;14.70;;
80247;SDS011;69560;52.206;21.018;2023-07-13T05:47:25;16.40;;;12.50;;
80247;SDS011;69560;52.206;21.018;2023-07-13T05:49:52;18.90;;;13.10;;
80247;SDS011;69560;52.206;21.018;2023-07-13T05:52:18;14.30;;;12.60;;
80247;SDS011;69560;52.206;21.018;2023-07-13T05:54:45;18.50;;;13.00;;
80247;SDS011;69560;52.206;21.018;2023-07-13T05:57:11;19.90;;;12.80;;
80247;SDS011;69560;52.206;21.018;2023-07-13T05:59:37;15.60;;;12.80;;
80247;SDS011;69560;52.206;21.018;2023-07-13T06:02:05;19.30;;;13.10;;
80247;SDS011;69560;52.206;21.018;2023-07-13T06:07:00;19.40;;;11.60;;
80247;SDS011;69560;52.206;21.018;2023-07-13T06:09:27;16.80;;;11.50;;
80247;SDS011;69560;52.206;21.018;2023-07-13T06:11:53;16.70;;;12.30;;
80247;SDS011;69560;52.206;21.018;2023-07-13T06:14:20;19.30;;;12.40;;
80247;SDS011;69560;52.206;21.018;2023-07-13T06:16:46;12.60;;;11.30;;
80247;SDS011;69560;52.206;21.018;2023-07-13T06:19:13;12.70;;;11.40;;
80247;SDS011;69560;52.206;21.018;2023-07-13T06:21:39;18.90;;;11.60;;
80247;SDS011;69560;52.206;21.018;2023-07-13T06:24:05;14.80;;;10.40;;
80247;SDS011;69560;52.206;21.018;2023-07-13T06:26:32;11.40;;;9.90;;
80247;SDS011;69560;52.206;21.018;2023-07-13T06:28:58;11.30;;;10.30;;
80247;SDS011;69560;52.206;21.018;2023-07-13T06:31:25;16.40;;;10.00;;
80247;SDS011;69560;52.206;21.018;2023-07-13T06:33:51;10.10;;;8.20;;
80247;SDS011;69560;52.206;21.018;2023-07-13T06:36:18;9.80;;;8.70;;
80247;SDS011;69560;52.206;21.018;2023-07-13T06:38:44;13.30;;;8.70;;
80247;SDS011;69560;52.206;21.018;2023-07-13T06:41:11;10.60;;;9.50;;
80247;SDS011;69560;52.206;21.018;2023-07-13T06:43:37;8.70;;;7.80;;
80247;SDS011;69560;52.206;21.018;2023-07-13T06:46:03;10.70;;;6.90;;
80247;SDS011;69560;52.206;21.018;2023-07-13T06:48:30;7.00;;;6.10;;
80247;SDS011;69560;52.206;21.018;2023-07-13T06:50:57;7.90;;;6.50;;
80247;SDS011;69560;52.206;21.018;2023-07-13T06:53:24;8.00;;;6.60;;
80247;SDS011;69560;52.206;21.018;2023-07-13T06:55:50;8.50;;;6.90;;
80247;SDS011;69560;52.206;21.018;2023-07-13T06:58:18;8.70;;;7.10;;
80247;SDS011;69560;52.206;21.018;2023-07-13T07:00:45;7.60;;;6.90;;
80247;SDS011;69560;52.206;21.018;2023-07-13T07:03:12;8.60;;;7.20;;
80247;SDS011;69560;52.206;21.018;2023-07-13T07:05:38;8.50;;;6.40;;
80247;SDS011;69560;52.206;21.018;2023-07-13T07:08:05;7.10;;;5.90;;
80247;SDS011;69560;52.206;21.018;2023-07-13T07:10:31;10.80;;;6.70;;
80247;SDS011;69560;52.206;21.018;2023-07-13T07:12:58;10.40;;;7.60;;
80247;SDS011;69560;52.206;21.018;2023-07-13T07:15:25;10.20;;;7.60;;
80247;SDS011;69560;52.206;21.018;2023-07-13T07:17:53;8.40;;;6.30;;
80247;SDS011;69560;52.206;21.018;2023-07-13T07:20:19;7.20;;;5.70;;
80247;SDS011;69560;52.206;21.018;2023-07-13T07:22:46;6.50;;;5.20;;
80247;SDS011;69560;52.206;21.018;2023-07-13T07:25:13;4.40;;;3.60;;
80247;SDS011;69560;52.206;21.018;2023-07-13T07:27:40;6.50;;;3.60;;
80247;SDS011;69560;52.206;21.018;2023-07-13T07:30:06;4.60;;;3.80;;
80247;SDS011;69560;52.206;21.018;2023-07-13T07:32:33;6.80;;;4.10;;
80247;SDS011;69560;52.206;21.018;2023-07-13T07:35:00;5.60;;;4.20;;
80247;SDS011;69560;52.206;21.018;2023-07-13T07:37:27;5.70;;;4.80;;
80247;SDS011;69560;52.206;21.018;2023-07-13T07:39:53;7.20;;;5.20;;
80247;SDS011;69560;52.206;21.018;2023-07-13T07:42:19;7.30;;;5.90;;
80247;SDS011;69560;52.206;21.018;2023-07-13T07:44:46;5.20;;;4.70;;
80247;SDS011;69560;52.206;21.018;2023-07-13T07:47:12;5.40;;;4.80;;
80247;SDS011;69560;52.206;21.018;2023-07-13T07:49:39;7.30;;;5.50;;
80247;SDS011;69560;52.206;21.018;2023-07-13T07:52:05;6.10;;;5.50;;
80247;SDS011;69560;52.206;21.018;2023-07-13T07:54:33;7.00;;;6.00;;
80247;SDS011;69560;52.206;21.018;2023-07-13T07:56:59;5.20;;;4.20;;
80247;SDS011;69560;52.206;21.018;2023-07-13T07:59:26;6.70;;;4.70;;
80247;SDS011;69560;52.206;21.018;2023-07-13T08:01:53;6.00;;;4.30;;
80247;SDS011;69560;52.206;21.018;2023-07-13T08:04:19;9.20;;;4.10;;
80247;SDS011;69560;52.206;21.018;2023-07-13T08:06:46;4.90;;;3.90;;
80247;SDS011;69560;52.206;21.018;2023-07-13T08:09:12;4.70;;;4.00;;
80247;SDS011;69560;52.206;21.018;2023-07-13T08:11:38;7.10;;;4.40;;
80247;SDS011;69560;52.206;21.018;2023-07-13T08:14:05;12.10;;;4.50;;
80247;SDS011;69560;52.206;21.018;2023-07-13T08:16:32;5.40;;;3.70;;
80247;SDS011;69560;52.206;21.018;2023-07-13T08:18:59;8.30;;;3.80;;
80247;SDS011;69560;52.206;21.018;2023-07-13T08:21:26;4.90;;;4.40;;
80247;SDS011;69560;52.206;21.018;2023-07-13T08:23:52;5.00;;;4.60;;
80247;SDS011;69560;52.206;21.018;2023-07-13T08:26:19;10.10;;;5.20;;
80247;SDS011;69560;52.206;21.018;2023-07-13T08:28:45;7.10;;;5.50;;
80247;SDS011;69560;52.206;21.018;2023-07-13T08:31:12;8.10;;;5.50;;
80247;SDS011;69560;52.206;21.018;2023-07-13T08:33:40;7.20;;;5.60;;
80247;SDS011;69560;52.206;21.018;2023-07-13T08:36:07;12.00;;;5.40;;
80247;SDS011;69560;52.206;21.018;2023-07-13T08:38:33;5.20;;;4.70;;
80247;SDS011;69560;52.206;21.018;2023-07-13T08:41:02;12.90;;;5.00;;
80247;SDS011;69560;52.206;21.018;2023-07-13T08:43:37;6.70;;;4.80;;
80247;SDS011;69560;52.206;21.018;2023-07-13T08:46:07;7.60;;;4.80;;
80247;SDS011;69560;52.206;21.018;2023-07-13T08:48:50;9.10;;;5.60;;
80247;SDS011;69560;52.206;21.018;2023-07-13T08:51:29;8.90;;;5.50;;
80247;SDS011;69560;52.206;21.018;2023-07-13T08:54:34;5.70;;;5.10;;
80247;SDS011;69560;52.206;21.018;2023-07-13T08:57:08;5.60;;;5.00;;
80247;SDS011;69560;52.206;21.018;2023-07-13T08:59:39;6.90;;;4.80;;
80247;SDS011;69560;52.206;21.018;2023-07-13T09:05:01;6.70;;;5.80;;
80247;SDS011;69560;52.206;21.018;2023-07-13T09:07:39;11.00;;;5.60;;
80247;SDS011;69560;52.206;21.018;2023-07-13T09:10:13;7.00;;;4.90;;
80247;SDS011;69560;52.206;21.018;2023-07-13T09:13:20;8.70;;;5.30;;
80247;SDS011;69560;52.206;21.018;2023-07-13T09:15:43;6.00;;;5.20;;
80247;SDS011;69560;52.206;21.018;2023-07-13T09:18:29;8.10;;;5.60;;
80247;SDS011;69560;52.206;21.018;2023-07-13T09:23:36;9.80;;;6.50;;
80247;SDS011;69560;52.206;21.018;2023-07-13T09:26:15;6.90;;;6.10;;
80247;SDS011;69560;52.206;21.018;2023-07-13T09:31:49;6.70;;;5.40;;
80247;SDS011;69560;52.206;21.018;2023-07-13T09:34:20;8.10;;;5.40;;
80247;SDS011;69560;52.206;21.018;2023-07-13T09:36:47;6.40;;;5.80;;
80247;SDS011;69560;52.206;21.018;2023-07-13T09:39:14;6.70;;;6.00;;
80247;SDS011;69560;52.206;21.018;2023-07-13T09:44:55;7.90;;;5.60;;
80247;SDS011;69560;52.206;21.018;2023-07-13T09:52:26;6.10;;;4.90;;
80247;SDS011;69560;52.206;21.018;2023-07-13T09:54:54;7.80;;;4.90;;
80247;SDS011;69560;52.206;21.018;2023-07-13T09:57:26;8.10;;;4.60;;
80247;SDS011;69560;52.206;21.018;2023-07-13T09:59:55;4.90;;;4.50;;
80247;SDS011;69560;52.206;21.018;2023-07-13T10:02:32;4.30;;;3.90;;
80247;SDS011;69560;52.206;21.018;2023-07-13T10:05:02;6.60;;;4.10;;
80247;SDS011;69560;52.206;21.018;2023-07-13T10:07:29;3.90;;;3.60;;
80247;SDS011;69560;52.206;21.018;2023-07-13T10:09:58;5.30;;;3.50;;
80247;SDS011;69560;52.206;21.018;2023-07-13T10:12:30;6.10;;;4.00;;
80247;SDS011;69560;52.206;21.018;2023-07-13T10:15:03;4.30;;;3.90;;
80247;SDS011;69560;52.206;21.018;2023-07-13T10:17:41;4.90;;;4.10;;
80247;SDS011;69560;52.206;21.018;2023-07-13T10:20:10;4.90;;;4.40;;
80247;SDS011;69560;52.206;21.018;2023-07-13T10:22:52;4.80;;;4.20;;
80247;SDS011;69560;52.206;21.018;2023-07-13T10:25:24;6.50;;;4.00;;
80247;SDS011;69560;52.206;21.018;2023-07-13T10:27:53;7.70;;;4.10;;
80247;SDS011;69560;52.206;21.018;2023-07-13T10:30:26;10.60;;;3.80;;
80247;SDS011;69560;52.206;21.018;2023-07-13T10:33:01;8.20;;;4.10;;
80247;SDS011;69560;52.206;21.018;2023-07-13T10:35:30;9.80;;;4.00;;
80247;SDS011;69560;52.206;21.018;2023-07-13T10:38:00;8.90;;;3.90;;
80247;SDS011;69560;52.206;21.018;2023-07-13T10:40:40;6.10;;;4.20;;
80247;SDS011;69560;52.206;21.018;2023-07-13T10:43:33;5.40;;;4.10;;
80247;SDS011;69560;52.206;21.018;2023-07-13T10:46:03;7.10;;;4.00;;
80247;SDS011;69560;52.206;21.018;2023-07-13T10:48:34;13.40;;;4.10;;
80247;SDS011;69560;52.206;21.018;2023-07-13T10:51:03;7.10;;;3.80;;
80247;SDS011;69560;52.206;21.018;2023-07-13T10:53:33;7.60;;;4.20;;
80247;SDS011;69560;52.206;21.018;2023-07-13T10:56:03;6.30;;;4.50;;
80247;SDS011;69560;52.206;21.018;2023-07-13T10:58:35;6.70;;;4.90;;
80247;SDS011;69560;52.206;21.018;2023-07-13T11:03:33;11.00;;;5.30;;
80247;SDS011;69560;52.206;21.018;2023-07-13T11:18:51;10.50;;;6.30;;
80247;SDS011;69560;52.206;21.018;2023-07-13T11:21:19;10.80;;;5.90;;
80247;SDS011;69560;52.206;21.018;2023-07-13T11:23:53;12.00;;;6.50;;
80247;SDS011;69560;52.206;21.018;2023-07-13T11:29:59;11.60;;;9.00;;
80247;SDS011;69560;52.206;21.018;2023-07-13T11:32:25;11.60;;;8.50;;
80247;SDS011;69560;52.206;21.018;2023-07-13T11:34:56;11.00;;;7.40;;
80247;SDS011;69560;52.206;21.018;2023-07-13T11:37:23;13.80;;;7.80;;
80247;SDS011;69560;52.206;21.018;2023-07-13T11:39:50;17.70;;;7.80;;
80247;SDS011;69560;52.206;21.018;2023-07-13T11:42:18;12.60;;;8.90;;
80247;SDS011;69560;52.206;21.018;2023-07-13T11:44:48;14.30;;;9.40;;
80247;SDS011;69560;52.206;21.018;2023-07-13T11:47:17;11.50;;;8.70;;
80247;SDS011;69560;52.206;21.018;2023-07-13T11:49:49;13.10;;;8.70;;
80247;SDS011;69560;52.206;21.018;2023-07-13T11:52:23;14.20;;;8.50;;
80247;SDS011;69560;52.206;21.018;2023-07-13T11:55:04;11.90;;;8.40;;
80247;SDS011;69560;52.206;21.018;2023-07-13T11:57:47;11.90;;;8.00;;
80247;SDS011;69560;52.206;21.018;2023-07-13T12:00:17;12.70;;;9.60;;
80247;SDS011;69560;52.206;21.018;2023-07-13T12:02:48;14.00;;;9.80;;
80247;SDS011;69560;52.206;21.018;2023-07-13T12:05:19;14.20;;;9.40;;
80247;SDS011;69560;52.206;21.018;2023-07-13T12:07:47;11.30;;;9.10;;
80247;SDS011;69560;52.206;21.018;2023-07-13T12:10:19;13.50;;;8.80;;
80247;SDS011;69560;52.206;21.018;2023-07-13T12:12:51;11.30;;;8.20;;
80247;SDS011;69560;52.206;21.018;2023-07-13T12:15:20;10.90;;;6.90;;
80247;SDS011;69560;52.206;21.018;2023-07-13T12:17:48;10.90;;;6.90;;
80247;SDS011;69560;52.206;21.018;2023-07-13T12:20:25;8.90;;;7.00;;
80247;SDS011;69560;52.206;21.018;2023-07-13T12:22:59;11.40;;;6.10;;
80247;SDS011;69560;52.206;21.018;2023-07-13T12:25:28;7.90;;;5.70;;
80247;SDS011;69560;52.206;21.018;2023-07-13T12:27:56;6.70;;;5.80;;
80247;SDS011;69560;52.206;21.018;2023-07-13T12:30:29;9.50;;;5.60;;
80247;SDS011;69560;52.206;21.018;2023-07-13T12:33:00;9.50;;;5.80;;
80247;SDS011;69560;52.206;21.018;2023-07-13T12:35:39;9.70;;;5.90;;
80247;SDS011;69560;52.206;21.018;2023-07-13T12:38:10;8.00;;;6.20;;
80247;SDS011;69560;52.206;21.018;2023-07-13T12:40:37;10.50;;;6.20;;
80247;SDS011;69560;52.206;21.018;2023-07-13T12:43:10;9.20;;;5.90;;
80247;SDS011;69560;52.206;21.018;2023-07-13T12:45:39;8.20;;;6.00;;
80247;SDS011;69560;52.206;21.018;2023-07-13T12:48:20;10.20;;;6.30;;
80247;SDS011;69560;52.206;21.018;2023-07-13T12:50:47;11.20;;;5.80;;
80247;SDS011;69560;52.206;21.018;2023-07-13T12:53:19;9.40;;;6.40;;
80247;SDS011;69560;52.206;21.018;2023-07-13T12:55:54;10.70;;;7.00;;
80247;SDS011;69560;52.206;21.018;2023-07-13T12:58:30;8.70;;;6.90;;
80247;SDS011;69560;52.206;21.018;2023-07-13T13:01:02;12.40;;;8.10;;
80247;SDS011;69560;52.206;21.018;2023-07-13T13:03:35;9.30;;;7.70;;
80247;SDS011;69560;52.206;21.018;2023-07-13T13:06:05;12.60;;;8.10;;
80247;SDS011;69560;52.206;21.018;2023-07-13T13:08:46;9.50;;;8.00;;
80247;SDS011;69560;52.206;21.018;2023-07-13T13:11:15;12.10;;;7.40;;
80247;SDS011;69560;52.206;21.018;2023-07-13T13:13:43;11.70;;;7.50;;
80247;SDS011;69560;52.206;21.018;2023-07-13T13:18:54;10.20;;;7.10;;
80247;SDS011;69560;52.206;21.018;2023-07-13T13:21:23;11.80;;;7.80;;
80247;SDS011;69560;52.206;21.018;2023-07-13T13:23:51;15.20;;;8.10;;
80247;SDS011;69560;52.206;21.018;2023-07-13T13:26:23;10.70;;;7.70;;
80247;SDS011;69560;52.206;21.018;2023-07-13T13:28:49;12.90;;;8.30;;
80247;SDS011;69560;52.206;21.018;2023-07-13T13:31:16;14.50;;;12.10;;
80247;SDS011;69560;52.206;21.018;2023-07-13T13:33:43;16.80;;;11.30;;
80247;SDS011;69560;52.206;21.018;2023-07-13T13:36:15;11.40;;;9.20;;
80247;SDS011;69560;52.206;21.018;2023-07-13T13:38:45;12.80;;;8.90;;
80247;SDS011;69560;52.206;21.018;2023-07-13T13:41:13;12.70;;;8.60;;
80247;SDS011;69560;52.206;21.018;2023-07-13T13:43:41;11.70;;;9.10;;
80247;SDS011;69560;52.206;21.018;2023-07-13T13:46:16;17.10;;;9.90;;
80247;SDS011;69560;52.206;21.018;2023-07-13T13:48:45;16.50;;;10.70;;
80247;SDS011;69560;52.206;21.018;2023-07-13T13:51:14;21.00;;;12.90;;
80247;SDS011;69560;52.206;21.018;2023-07-13T13:53:44;13.90;;;10.30;;
80247;SDS011;69560;52.206;21.018;2023-07-13T13:56:14;10.90;;;9.70;;
80247;SDS011;69560;52.206;21.018;2023-07-13T13:58:43;15.60;;;11.00;;
80247;SDS011;69560;52.206;21.018;2023-07-13T14:01:12;19.10;;;11.60;;
80247;SDS011;69560;52.206;21.018;2023-07-13T14:03:42;14.60;;;10.20;;
80247;SDS011;69560;52.206;21.018;2023-07-13T14:06:12;12.90;;;10.60;;
80247;SDS011;69560;52.206;21.018;2023-07-13T14:08:40;15.00;;;10.80;;
80247;SDS011;69560;52.206;21.018;2023-07-13T14:11:07;14.70;;;11.90;;
80247;SDS011;69560;52.206;21.018;2023-07-13T14:13:59;14.10;;;11.60;;
80247;SDS011;69560;52.206;21.018;2023-07-13T14:16:28;13.10;;;11.20;;
80247;SDS011;69560;52.206;21.018;2023-07-13T14:18:58;15.00;;;11.60;;
80247;SDS011;69560;52.206;21.018;2023-07-13T14:21:27;13.60;;;10.60;;
80247;SDS011;69560;52.206;21.018;2023-07-13T14:23:54;13.20;;;10.70;;
80247;SDS011;69560;52.206;21.018;2023-07-13T14:26:22;14.80;;;11.10;;
80247;SDS011;69560;52.206;21.018;2023-07-13T14:28:55;15.20;;;11.80;;
80247;SDS011;69560;52.206;21.018;2023-07-13T14:31:24;14.10;;;10.70;;
80247;SDS011;69560;52.206;21.018;2023-07-13T14:33:52;13.50;;;10.70;;
80247;SDS011;69560;52.206;21.018;2023-07-13T14:36:28;10.90;;;9.80;;
80247;SDS011;69560;52.206;21.018;2023-07-13T14:38:58;12.80;;;10.40;;
80247;SDS011;69560;52.206;21.018;2023-07-13T14:41:26;11.20;;;10.00;;
80247;SDS011;69560;52.206;21.018;2023-07-13T14:43:53;10.30;;;9.30;;
80247;SDS011;69560;52.206;21.018;2023-07-13T14:46:28;12.60;;;9.00;;
80247;SDS011;69560;52.206;21.018;2023-07-13T14:51:43;8.60;;;7.50;;
80247;SDS011;69560;52.206;21.018;2023-07-13T14:54:10;9.30;;;8.00;;
80247;SDS011;69560;52.206;21.018;2023-07-13T14:56:37;8.60;;;7.60;;
80247;SDS011;69560;52.206;21.018;2023-07-13T14:59:04;9.20;;;8.20;;
80247;SDS011;69560;52.206;21.018;2023-07-13T15:01:31;9.50;;;7.80;;
80247;SDS011;69560;52.206;21.018;2023-07-13T15:03:57;9.30;;;8.40;;
80247;SDS011;69560;52.206;21.018;2023-07-13T15:06:24;8.80;;;7.30;;
80247;SDS011;69560;52.206;21.018;2023-07-13T15:08:51;8.80;;;7.90;;
80247;SDS011;69560;52.206;21.018;2023-07-13T15:11:17;9.30;;;7.90;;
80247;SDS011;69560;52.206;21.018;2023-07-13T15:13:44;7.90;;;6.50;;
80247;SDS011;69560;52.206;21.018;2023-07-13T15:16:21;8.20;;;7.20;;